createdAt,value
2023-02-06T00:02:27.004Z,10.65
2023-02-06T00:08:10.902Z,10.64
2023-02-06T00:13:54.832Z,10.61
2023-02-06T00:19:38.439Z,10.6
2023-02-06T00:25:22.313Z,10.61
2023-02-06T00:31:06.349Z,10.55
2023-02-06T00:36:50.595Z,10.47
2023-02-06T00:42:34.528Z,10.43
2023-02-06T00:48:18.469Z,10.39
2023-02-06T00:54:02.251Z,10.37
2023-02-06T00:59:45.971Z,10.33
2023-02-06T01:05:29.726Z,10.31
2023-02-06T01:11:15.304Z,10.28
2023-02-06T01:16:58.958Z,10.27
2023-02-06T01:22:42.692Z,10.24
2023-02-06T01:28:26.359Z,10.19
2023-02-06T01:34:10.071Z,10.18
2023-02-06T01:39:54.051Z,10.15
2023-02-06T01:45:51.184Z,10.13
2023-02-06T01:51:35.418Z,10.2
2023-02-06T01:57:19.969Z,10.17
2023-02-06T02:03:04.744Z,10.2
2023-02-06T02:08:50.644Z,10.23
2023-02-06T02:14:34.451Z,10.21
2023-02-06T02:20:31.278Z,10.26
2023-02-06T02:26:29.102Z,10.32
2023-02-06T02:32:20.865Z,10.36
2023-02-06T02:38:12.553Z,10.39
2023-02-06T02:44:00.508Z,10.41
2023-02-06T02:49:45.594Z,10.44
2023-02-06T02:55:29.319Z,10.41
2023-02-06T03:01:17.056Z,10.41
2023-02-06T03:07:08.444Z,10.43
2023-02-06T03:12:55.778Z,10.43
2023-02-06T03:18:42.610Z,10.46
2023-02-06T03:24:29.540Z,10.47
2023-02-06T03:30:15.645Z,10.48
2023-02-06T03:36:00.079Z,10.47
2023-02-06T03:41:45.219Z,10.46
2023-02-06T03:47:29.884Z,10.48
2023-02-06T03:53:15.852Z,10.48
2023-02-06T03:58:59.731Z,10.51
2023-02-06T04:04:44.378Z,10.5
2023-02-06T04:10:28.902Z,10.51
2023-02-06T04:16:12.545Z,10.5
2023-02-06T04:21:56.414Z,10.51
2023-02-06T04:27:40.439Z,10.49
2023-02-06T04:33:24.151Z,10.52
2023-02-06T04:39:08.953Z,10.51
2023-02-06T04:44:52.594Z,10.53
2023-02-06T04:50:36.231Z,10.59
2023-02-06T04:56:19.884Z,10.59
2023-02-06T05:02:03.640Z,10.58
2023-02-06T05:07:47.399Z,10.55
2023-02-06T05:13:31.175Z,10.54
2023-02-06T05:19:15.863Z,10.56
2023-02-06T05:24:59.706Z,10.54
2023-02-06T05:30:44.446Z,10.53
2023-02-06T05:36:28.575Z,10.54
2023-02-06T05:42:12.323Z,10.54
2023-02-06T05:47:56.083Z,10.53
2023-02-06T05:53:41.658Z,10.55
2023-02-06T05:59:25.552Z,10.55
2023-02-06T06:05:09.550Z,10.55
2023-02-06T06:10:53.646Z,10.53
2023-02-06T06:16:37.597Z,10.54
2023-02-06T06:22:21.676Z,10.58
2023-02-06T06:28:05.380Z,10.59
2023-02-06T06:33:49.317Z,10.75
2023-02-06T06:39:33.167Z,10.63
2023-02-06T06:45:17.018Z,10.61
2023-02-06T06:51:00.770Z,10.61
2023-02-06T06:56:44.640Z,10.59
2023-02-06T07:02:28.474Z,10.61
2023-02-06T07:08:12.246Z,10.61
2023-02-06T07:13:56.154Z,10.61
2023-02-06T07:19:39.821Z,10.61
2023-02-06T07:25:23.512Z,10.58
2023-02-06T07:31:07.683Z,10.56
2023-02-06T07:36:51.539Z,10.58
2023-02-06T07:42:35.186Z,10.56
2023-02-06T07:48:18.987Z,10.59
2023-02-06T07:54:03.006Z,10.64
2023-02-06T07:59:46.919Z,10.68
2023-02-06T08:05:31.238Z,10.7
2023-02-06T08:11:16.372Z,10.72
2023-02-06T08:17:00.406Z,10.83
2023-02-06T08:22:44.154Z,10.94
2023-02-06T08:28:28.680Z,10.99
2023-02-06T08:34:13.667Z,11.02
2023-02-06T08:39:57.621Z,11.01
2023-02-06T08:45:41.350Z,11.02
2023-02-06T08:51:25.611Z,11.03
2023-02-06T08:57:09.271Z,11.09
2023-02-06T09:02:53.940Z,11.21
2023-02-06T09:08:38.541Z,11.27
2023-02-06T09:14:22.422Z,11.36
2023-02-06T09:20:06.759Z,11.4
2023-02-06T09:25:50.450Z,11.43
2023-02-06T09:31:34.978Z,11.5
2023-02-06T09:37:18.835Z,11.62
2023-02-06T09:43:03.831Z,11.71
2023-02-06T09:48:48.774Z,11.82
2023-02-06T09:54:37.759Z,11.91
2023-02-06T10:00:29.054Z,11.99
2023-02-06T10:06:18.823Z,12.12
2023-02-06T10:12:04.823Z,12.2
2023-02-06T10:17:49.834Z,12.28
2023-02-06T10:23:37.780Z,12.41
2023-02-06T10:29:25.182Z,12.58
2023-02-06T10:35:13.344Z,12.81
2023-02-06T10:41:02.270Z,13.01
2023-02-06T10:46:47.682Z,13.4
2023-02-06T10:52:33.317Z,13.69
2023-02-06T10:58:20.205Z,13.8
2023-02-06T11:04:05.136Z,13.91
2023-02-06T11:09:50.020Z,13.84
2023-02-06T11:15:37.396Z,13.77
2023-02-06T11:21:36.001Z,13.51
2023-02-06T11:27:20.132Z,13.41
2023-02-06T11:33:05.994Z,13.66
2023-02-06T11:38:58.075Z,13.87
2023-02-06T11:44:43.280Z,14
2023-02-06T11:50:28.587Z,14.04
2023-02-06T11:56:19.301Z,14.1
2023-02-06T12:02:08.231Z,14.18
2023-02-06T12:07:54.593Z,14.29
2023-02-06T12:13:42.447Z,14.44
2023-02-06T12:19:29.183Z,14.62
2023-02-06T12:25:21.689Z,14.76
2023-02-06T12:31:09.215Z,14.95
2023-02-06T12:36:56.209Z,14.75
2023-02-06T12:42:42.329Z,14.65
2023-02-06T12:48:29.166Z,14.78
2023-02-06T12:54:17.310Z,14.81
2023-02-06T13:00:15.618Z,14.68
2023-02-06T13:06:09.060Z,14.61
2023-02-06T13:11:53.037Z,14.8
2023-02-06T13:17:37.978Z,14.95
2023-02-06T13:23:25.019Z,14.69
2023-02-06T13:29:13.683Z,14.89
2023-02-06T13:35:02.118Z,15.06
2023-02-06T13:40:45.874Z,15.17
2023-02-06T13:46:33.719Z,15.02
2023-02-06T13:52:22.878Z,15.02
2023-02-06T13:58:20.344Z,15
2023-02-06T14:04:07.127Z,15.2
2023-02-06T14:10:02.243Z,15.18
2023-02-06T14:15:49.993Z,15.29
2023-02-06T14:21:39.584Z,15.32
2023-02-06T14:27:31.366Z,15.37
2023-02-06T14:33:24.448Z,15.45
2023-02-06T14:39:19.474Z,15.52
2023-02-06T14:45:06.255Z,15.62
2023-02-06T14:50:52.453Z,15.72
2023-02-06T14:56:39.298Z,15.76
2023-02-06T15:02:26.435Z,15.74
2023-02-06T15:08:16.029Z,15.69
2023-02-06T15:14:00.812Z,15.58
2023-02-06T15:19:44.620Z,15.46
2023-02-06T15:25:33.924Z,15.35
2023-02-06T15:31:21.236Z,15.3
2023-02-06T15:37:11.206Z,15.24
2023-02-06T15:42:55.251Z,15.12
2023-02-06T15:48:43.250Z,14.97
2023-02-06T15:54:28.271Z,14.87
2023-02-06T16:00:19.855Z,14.82
2023-02-06T16:06:08.511Z,14.78
2023-02-06T16:11:53.777Z,14.63
2023-02-06T16:17:37.757Z,14.51
2023-02-06T16:23:29.156Z,14.39
2023-02-06T16:29:22.853Z,14.27
2023-02-06T16:35:12.087Z,14.18
2023-02-06T16:40:56.522Z,14.05
2023-02-06T16:46:40.495Z,13.91
2023-02-06T16:52:25.777Z,13.78
2023-02-06T16:58:14.540Z,13.7
2023-02-06T17:03:58.332Z,13.58
2023-02-06T17:09:42.854Z,13.48
2023-02-06T17:15:26.988Z,13.34
2023-02-06T17:21:13.141Z,13.22
2023-02-06T17:26:56.836Z,13.13
2023-02-06T17:32:40.718Z,13.03
2023-02-06T17:38:24.519Z,12.94
2023-02-06T17:44:08.646Z,12.81
2023-02-06T17:49:52.618Z,12.69
2023-02-06T17:55:36.565Z,12.61
2023-02-06T18:01:22.830Z,12.55
2023-02-06T18:07:07.669Z,12.44
2023-02-06T18:12:51.373Z,12.32
2023-02-06T18:18:35.122Z,12.23
2023-02-06T18:24:19.072Z,12.17
2023-02-06T18:30:03.575Z,12.06
2023-02-06T18:35:47.314Z,12.01
2023-02-06T18:41:32.004Z,11.92
2023-02-06T18:47:16.460Z,11.81
2023-02-06T18:53:00.985Z,11.75
2023-02-06T18:58:45.046Z,11.72
2023-02-06T19:04:29.124Z,11.65
2023-02-06T19:10:13.600Z,11.62
2023-02-06T19:16:06.379Z,11.58
2023-02-06T19:21:50.682Z,11.51
2023-02-06T19:27:34.263Z,11.46
2023-02-06T19:33:18.172Z,11.38
2023-02-06T19:39:03.543Z,11.33
2023-02-06T19:44:50.887Z,11.26
2023-02-06T19:50:35.221Z,11.19
2023-02-06T19:56:22.799Z,11.13
2023-02-06T20:02:06.735Z,11.09
2023-02-06T20:07:50.436Z,11.03
2023-02-06T20:13:34.520Z,10.97
2023-02-06T20:19:19.963Z,10.9
2023-02-06T20:25:04.082Z,10.86
2023-02-06T20:30:48.177Z,10.82
2023-02-06T20:36:32.607Z,10.8
2023-02-06T20:42:16.495Z,10.75
2023-02-06T20:48:00.139Z,10.69
2023-02-06T20:53:43.747Z,10.64
2023-02-06T20:59:27.969Z,10.62
2023-02-06T21:05:12.797Z,10.61
2023-02-06T21:10:56.860Z,10.56
2023-02-06T21:16:41.182Z,10.52
2023-02-06T21:22:24.903Z,10.48
2023-02-06T21:28:09.071Z,10.44
2023-02-06T21:33:52.883Z,10.43
2023-02-06T21:39:36.836Z,10.39
2023-02-06T21:45:21.456Z,10.37
2023-02-06T21:51:10.702Z,10.37
2023-02-06T21:56:54.502Z,10.4
2023-02-06T22:02:38.559Z,10.4
2023-02-06T22:08:22.340Z,10.35
2023-02-06T22:14:06.749Z,10.32
2023-02-06T22:19:50.550Z,10.26
2023-02-06T22:25:34.378Z,10.21
2023-02-06T22:31:20.257Z,10.21
2023-02-06T22:37:04.228Z,10.18
2023-02-06T22:42:47.892Z,10.15
2023-02-06T22:48:31.643Z,10.13
2023-02-06T22:54:16.817Z,10.14
2023-02-06T23:00:00.556Z,10.15
2023-02-06T23:05:44.616Z,10.12
2023-02-06T23:11:28.713Z,10.11
2023-02-06T23:17:12.422Z,10.12
2023-02-06T23:22:55.833Z,10.48
2023-02-06T23:28:39.542Z,10.76
2023-02-06T23:34:23.240Z,10.68
2023-02-06T23:40:08.326Z,10.43
2023-02-06T23:45:52.005Z,10.3
2023-02-06T23:51:36.126Z,10.19
2023-02-06T23:57:19.897Z,10.12
